Time;durP1;ratioP1;P1;durP2;ratioP2;P2;SDS_P1;SDS_P2;PMS_P1;PMS_P2;Temp;Humidity;BMP_temperature;BMP_pressure;BME280_temperature;BME280_humidity;BME280_pressure;Samples;Min_cycle;Max_cycle;Signal;HPM_P1;HPM_P2
2022/04/14 00:01:13;;;;;;;14.83;10.00;;;12.30;99.90;;;;;;5037506;28;20128;-74
2022/04/14 00:03:40;;;;;;;15.50;9.60;;;12.20;99.90;;;;;;5054526;28;20049;-74
2022/04/14 00:06:06;;;;;;;16.17;10.17;;;12.20;99.90;;;;;;5054709;28;20044;-74
2022/04/14 00:08:32;;;;;;;15.43;8.90;;;12.20;99.90;;;;;;5055072;28;20299;-74
2022/04/14 00:10:58;;;;;;;17.27;10.57;;;12.20;99.90;;;;;;5037297;28;20601;-74
2022/04/14 00:13:24;;;;;;;17.07;10.67;;;12.20;99.90;;;;;;5055097;28;20465;-75
2022/04/14 00:15:50;;;;;;;18.10;10.10;;;12.10;99.90;;;;;;5054523;28;20049;-75
2022/04/14 00:18:16;;;;;;;15.07;10.60;;;12.10;99.90;;;;;;5054475;28;20363;-75
2022/04/14 00:20:42;;;;;;;14.10;10.60;;;12.10;99.90;;;;;;5036925;28;20056;-75
2022/04/14 00:23:08;;;;;;;18.13;11.23;;;12.10;99.90;;;;;;5053125;28;20279;-75
2022/04/14 00:25:34;;;;;;;19.33;11.67;;;12.10;99.90;;;;;;5054275;28;20048;-75
2022/04/14 00:28:00;;;;;;;16.20;10.90;;;12.00;99.90;;;;;;5053904;28;20382;-75
2022/04/14 00:30:26;;;;;;;17.73;11.47;;;12.00;99.90;;;;;;5054233;28;20369;-75
2022/04/14 00:32:52;;;;;;;16.60;11.33;;;12.00;99.90;;;;;;5036426;28;20378;-75
2022/04/14 00:35:17;;;;;;;16.90;11.33;;;12.00;99.90;;;;;;5054168;28;20333;-75
2022/04/14 00:37:43;;;;;;;15.93;10.70;;;12.00;99.90;;;;;;5054393;28;20049;-75
2022/04/14 00:40:09;;;;;;;23.50;12.70;;;12.00;99.90;;;;;;5054064;28;20575;-74
2022/04/14 00:42:35;;;;;;;16.70;11.23;;;11.90;99.90;;;;;;5035302;28;20063;-75
2022/04/14 00:45:01;;;;;;;17.93;11.70;;;11.90;99.90;;;;;;5053865;28;20283;-74
2022/04/14 00:47:31;;;;;;;17.87;11.53;;;11.90;99.90;;;;;;5035929;28;20115;-75
2022/04/14 00:49:57;;;;;;;19.57;11.93;;;11.90;99.90;;;;;;5054462;28;20056;-75
2022/04/14 00:52:24;;;;;;;16.27;11.67;;;11.80;99.90;;;;;;5054915;28;20290;-74
2022/04/14 00:54:50;;;;;;;17.20;11.30;;;11.80;99.90;;;;;;5053830;28;20060;-75
2022/04/14 00:57:15;;;;;;;14.63;11.40;;;11.80;99.90;;;;;;5053667;28;20303;-75
2022/04/14 00:59:42;;;;;;;15.37;11.43;;;11.80;99.90;;;;;;5053663;28;20477;-75
2022/04/14 01:02:08;;;;;;;15.73;11.80;;;11.70;99.90;;;;;;5054430;28;20048;-74
2022/04/14 01:04:35;;;;;;;18.30;12.03;;;;;;;;;;5053666;28;20284;-74
2022/04/14 01:07:01;;;;;;;16.17;11.03;;;11.60;99.90;;;;;;5053524;28;20284;-74
2022/04/14 01:09:29;;;;;;;15.67;11.73;;;11.60;99.90;;;;;;5053980;28;20299;-74
2022/04/14 01:11:56;;;;;;;16.43;11.97;;;11.60;99.90;;;;;;5053336;28;20290;-74
2022/04/14 01:14:28;;;;;;;18.57;11.30;;;11.70;99.90;;;;;;5053449;28;20288;-74
2022/04/14 01:16:55;;;;;;;17.20;11.07;;;11.70;99.90;;;;;;5053688;28;20368;-74
2022/04/14 01:19:21;;;;;;;15.30;11.63;;;11.80;99.90;;;;;;5053320;28;20735;-74
2022/04/14 01:22:15;;;;;;;15.50;10.67;;;11.60;99.90;;;;;;5054116;28;20341;-74
2022/04/14 01:24:41;;;;;;;14.83;11.57;;;11.50;99.90;;;;;;5053879;28;20139;-75
2022/04/14 01:27:07;;;;;;;16.80;11.80;;;;;;;;;;5053213;28;20283;-74
2022/04/14 01:29:33;;;;;;;17.50;11.93;;;11.50;99.90;;;;;;5053204;28;20315;-74
2022/04/14 01:32:01;;;;;;;19.77;12.77;;;11.40;99.90;;;;;;5053577;28;20298;-75
2022/04/14 01:34:29;;;;;;;19.40;12.80;;;11.30;99.90;;;;;;5053159;28;20283;-75
2022/04/14 01:36:56;;;;;;;19.50;12.20;;;11.40;99.90;;;;;;5052115;28;20283;-75
2022/04/14 01:39:23;;;;;;;18.07;12.47;;;11.30;99.90;;;;;;5053176;28;20358;-75
2022/04/14 01:41:48;;;;;;;19.43;13.23;;;11.30;99.90;;;;;;5053169;28;20607;-75
2022/04/14 01:44:14;;;;;;;22.20;14.00;;;11.30;99.90;;;;;;5053104;28;20275;-74
2022/04/14 01:46:41;;;;;;;19.20;12.97;;;11.30;99.90;;;;;;5035617;28;20075;-75
2022/04/14 01:49:10;;;;;;;19.57;13.10;;;;;;;;;;5052815;28;20064;-75
2022/04/14 01:51:36;;;;;;;17.47;13.30;;;;;;;;;;5053125;28;20291;-74
2022/04/14 01:54:02;;;;;;;19.67;13.23;;;;;;;;;;5053091;28;20286;-74
2022/04/14 01:56:28;;;;;;;18.00;13.10;;;;;;;;;;5053027;28;20283;-74
2022/04/14 01:58:54;;;;;;;17.73;13.67;;;11.30;99.90;;;;;;5053105;28;20756;-75
2022/04/14 02:01:21;;;;;;;20.50;13.60;;;11.20;99.90;;;;;;5052953;28;20287;-74
2022/04/14 02:03:47;;;;;;;18.33;13.40;;;11.10;99.90;;;;;;5053026;28;20045;-75
2022/04/14 02:06:13;;;;;;;19.70;12.90;;;11.10;99.90;;;;;;5052650;28;20802;-74
2022/04/14 02:08:39;;;;;;;17.57;14.43;;;11.10;99.90;;;;;;5053544;28;20303;-75
2022/04/14 02:11:05;;;;;;;17.80;13.63;;;11.10;99.90;;;;;;5057189;28;20283;-75
2022/04/14 02:13:31;;;;;;;19.40;13.83;;;11.10;99.90;;;;;;5056913;28;20397;-74
2022/04/14 02:15:57;;;;;;;19.23;13.47;;;11.00;99.90;;;;;;5056532;28;20275;-75
2022/04/14 02:18:23;;;;;;;20.13;14.27;;;11.00;99.90;;;;;;5056824;28;20275;-75
2022/04/14 02:20:49;;;;;;;20.60;14.60;;;11.00;99.90;;;;;;5057613;28;20286;-75
2022/04/14 02:23:15;;;;;;;19.80;14.23;;;11.00;99.90;;;;;;5057238;28;20465;-74
2022/04/14 02:25:41;;;;;;;19.40;13.27;;;10.90;99.90;;;;;;5057199;28;20080;-75
2022/04/14 02:28:06;;;;;;;18.60;14.87;;;11.00;99.90;;;;;;5056501;28;20707;-75
2022/04/14 02:30:35;;;;;;;22.63;14.80;;;10.90;99.90;;;;;;5056536;28;20055;-75
2022/04/14 02:33:02;;;;;;;21.27;16.47;;;10.90;99.90;;;;;;5055338;28;20048;-75
2022/04/14 02:35:28;;;;;;;22.97;14.80;;;10.90;99.90;;;;;;5056439;28;20315;-75
2022/04/14 02:37:56;;;;;;;21.43;15.83;;;10.90;99.90;;;;;;5056463;28;20279;-75
2022/04/14 02:40:23;;;;;;;22.33;16.03;;;10.90;99.90;;;;;;5056713;28;20362;-74
2022/04/14 02:42:50;;;;;;;22.13;16.47;;;10.80;99.90;;;;;;5056351;28;20291;-75
2022/04/14 02:45:16;;;;;;;23.13;16.40;;;10.80;99.90;;;;;;5056260;28;20666;-75
2022/04/14 02:47:41;;;;;;;19.07;15.30;;;10.70;99.90;;;;;;5038871;28;20303;-75
2022/04/14 02:50:08;;;;;;;20.63;15.63;;;10.60;99.90;;;;;;5056196;28;20053;-75
2022/04/14 02:52:34;;;;;;;22.50;16.37;;;10.60;99.90;;;;;;5056090;28;20044;-74
2022/04/14 02:55:00;;;;;;;22.40;16.60;;;;;;;;;;5038344;28;20288;-74
2022/04/14 02:57:26;;;;;;;23.17;16.33;;;10.60;99.90;;;;;;5056079;28;20412;-75
2022/04/14 02:59:52;;;;;;;20.80;16.53;;;10.60;99.90;;;;;;5055932;28;20290;-75
2022/04/14 03:02:17;;;;;;;23.50;17.90;;;10.60;99.90;;;;;;5055596;28;20060;-75
2022/04/14 03:04:43;;;;;;;23.73;18.70;;;10.60;99.90;;;;;;5055905;28;20048;-75
2022/04/14 03:07:09;;;;;;;26.00;18.33;;;10.60;99.90;;;;;;5056202;28;20057;-75
2022/04/14 03:09:34;;;;;;;25.93;18.67;;;10.50;99.90;;;;;;5056094;28;20459;-75
2022/04/14 03:12:00;;;;;;;23.83;17.40;;;10.50;99.90;;;;;;5055825;28;20087;-75
2022/04/14 03:14:26;;;;;;;25.37;19.10;;;10.50;99.90;;;;;;5055999;28;20076;-75
2022/04/14 03:16:51;;;;;;;23.10;17.40;;;10.40;99.90;;;;;;5055757;28;20049;-75
2022/04/14 03:19:17;;;;;;;25.50;18.67;;;10.40;99.90;;;;;;5054630;28;20538;-74
2022/04/14 03:21:43;;;;;;;25.07;18.87;;;10.40;99.90;;;;;;5054551;28;20136;-75
2022/04/14 03:24:09;;;;;;;25.47;18.97;;;10.40;99.90;;;;;;5055592;28;20045;-75
2022/04/14 03:26:35;;;;;;;22.40;18.30;;;10.40;99.90;;;;;;5055465;28;20294;-75
2022/04/14 03:29:00;;;;;;;25.20;19.17;;;10.40;99.90;;;;;;5055366;28;20135;-74
2022/04/14 03:31:26;;;;;;;27.07;18.77;;;10.30;99.90;;;;;;5055965;28;20061;-75
2022/04/14 03:33:53;;;;;;;22.67;18.87;;;10.30;99.90;;;;;;5037984;28;20102;-75
2022/04/14 03:36:18;;;;;;;23.50;18.77;;;10.20;99.90;;;;;;5054939;28;20280;-74
2022/04/14 03:38:44;;;;;;;23.63;17.70;;;10.20;99.90;;;;;;5055535;28;20052;-75
2022/04/14 03:41:10;;;;;;;26.03;20.00;;;10.30;99.90;;;;;;5055595;28;20049;-75
2022/04/14 03:43:36;;;;;;;24.20;19.07;;;10.30;99.90;;;;;;5055182;28;20131;-75
2022/04/14 03:46:03;;;;;;;24.33;18.87;;;10.20;99.90;;;;;;5055152;28;20040;-74
2022/04/14 03:48:29;;;;;;;25.43;19.93;;;10.20;99.90;;;;;;5054874;28;20325;-74
2022/04/14 03:50:55;;;;;;;24.30;18.60;;;10.10;99.90;;;;;;5055124;28;20292;-75
2022/04/14 03:53:21;;;;;;;26.00;19.30;;;;;;;;;;5037269;28;20037;-74
2022/04/14 03:55:48;;;;;;;26.93;19.93;;;;;;;;;;5054962;28;20279;-74
2022/04/14 03:58:14;;;;;;;23.50;18.63;;;;;;;;;;5055000;28;20661;-74
2022/04/14 04:00:41;;;;;;;27.80;20.00;;;;;;;;;;5037115;28;20287;-74
2022/04/14 04:03:10;;;;;;;26.23;19.47;;;;;;;;;;5054903;28;20672;-74
2022/04/14 04:05:36;;;;;;;24.07;20.23;;;;;;;;;;5055079;28;20354;-74
2022/04/14 04:08:02;;;;;;;25.07;19.10;;;;;;;;;;5054690;28;20295;-74
2022/04/14 04:10:28;;;;;;;24.80;19.27;;;10.10;99.90;;;;;;5036799;28;20279;-74
2022/04/14 04:12:54;;;;;;;26.70;20.03;;;;;;;;;;5053756;28;20287;-74
2022/04/14 04:15:20;;;;;;;25.37;20.17;;;;;;;;;;5054057;28;20563;-74
2022/04/14 04:17:46;;;;;;;25.57;19.63;;;9.90;99.90;;;;;;5054566;28;20276;-74
2022/04/14 04:20:12;;;;;;;25.43;19.60;;;9.90;99.90;;;;;;5055119;28;20272;-75
2022/04/14 04:22:40;;;;;;;23.93;19.67;;;9.80;99.90;;;;;;5054481;28;20284;-75
2022/04/14 04:25:06;;;;;;;26.43;19.30;;;9.80;99.90;;;;;;5054387;28;20370;-75
2022/04/14 04:27:32;;;;;;;27.20;20.37;;;9.80;99.90;;;;;;5054306;28;20367;-74
2022/04/14 04:29:58;;;;;;;30.27;20.50;;;9.70;99.90;;;;;;5054284;28;20374;-74
2022/04/14 04:32:24;;;;;;;22.90;19.73;;;9.80;99.90;;;;;;5053885;28;20052;-74
2022/04/14 04:34:49;;;;;;;24.77;19.97;;;9.80;99.90;;;;;;5054165;28;20473;-74
2022/04/14 04:37:15;;;;;;;28.73;20.67;;;9.80;99.90;;;;;;5036817;28;20057;-75
2022/04/14 04:39:41;;;;;;;29.13;20.37;;;9.80;99.90;;;;;;5036733;28;20041;-75
2022/04/14 04:42:07;;;;;;;25.83;19.67;;;9.70;99.90;;;;;;5054609;28;20053;-74
2022/04/14 04:44:33;;;;;;;26.40;19.40;;;9.70;99.90;;;;;;5053976;28;20040;-74
2022/04/14 04:46:58;;;;;;;25.80;20.47;;;9.60;99.90;;;;;;5053069;28;20294;-74
2022/04/14 04:49:24;;;;;;;28.53;20.67;;;9.60;99.90;;;;;;5053572;28;20520;-75
2022/04/14 04:51:50;;;;;;;26.83;20.57;;;9.60;99.90;;;;;;5053825;28;20053;-74
2022/04/14 04:54:15;;;;;;;27.93;21.47;;;9.60;99.90;;;;;;5052795;28;20044;-75
2022/04/14 04:56:41;;;;;;;27.20;21.23;;;9.60;99.90;;;;;;5035719;28;20144;-74
2022/04/14 04:59:08;;;;;;;28.00;20.77;;;9.60;99.90;;;;;;5054061;28;20116;-75
2022/04/14 05:01:34;;;;;;;24.93;20.63;;;9.70;99.90;;;;;;5053740;28;20052;-74
2022/04/14 05:03:59;;;;;;;24.97;20.30;;;9.70;99.90;;;;;;5053634;28;20279;-74
2022/04/14 05:06:25;;;;;;;25.37;20.97;;;9.70;99.90;;;;;;5053694;28;20045;-74
2022/04/14 05:08:50;;;;;;;26.17;21.07;;;9.60;99.90;;;;;;5054234;28;20045;-75
2022/04/14 05:11:16;;;;;;;27.30;21.37;;;9.60;99.90;;;;;;5053657;28;20045;-75
2022/04/14 05:13:42;;;;;;;33.53;23.33;;;9.70;99.90;;;;;;5035664;28;20072;-75
2022/04/14 05:16:09;;;;;;;29.97;22.33;;;9.70;99.90;;;;;;5054091;28;20094;-75
2022/04/14 05:18:35;;;;;;;29.83;22.47;;;9.70;99.90;;;;;;5053453;28;20124;-74
2022/04/14 05:21:01;;;;;;;27.83;22.90;;;9.80;99.90;;;;;;5053099;28;20844;-75
2022/04/14 05:23:27;;;;;;;27.30;23.33;;;9.80;99.90;;;;;;5053403;28;20306;-75
2022/04/14 05:25:54;;;;;;;28.13;23.30;;;9.80;99.90;;;;;;5053346;28;20763;-74
2022/04/14 05:28:20;;;;;;;28.23;22.97;;;9.90;99.90;;;;;;5035754;28;20044;-75
2022/04/14 05:30:46;;;;;;;30.63;24.17;;;9.80;99.90;;;;;;5053343;28;20370;-75
2022/04/14 05:33:12;;;;;;;27.93;22.83;;;9.90;99.90;;;;;;5053421;28;20071;-74
2022/04/14 05:35:39;;;;;;;33.47;24.73;;;9.90;99.90;;;;;;5035766;28;20109;-74
2022/04/14 05:38:05;;;;;;;31.53;25.00;;;9.90;99.90;;;;;;5053564;28;20276;-74
2022/04/14 05:40:32;;;;;;;33.50;25.23;;;10.00;99.90;;;;;;5053244;28;20600;-74
2022/04/14 05:42:57;;;;;;;29.20;24.47;;;10.00;99.90;;;;;;5052945;28;20290;-75
2022/04/14 05:45:23;;;;;;;29.73;24.47;;;10.10;99.90;;;;;;5035425;28;20287;-74
2022/04/14 05:47:49;;;;;;;30.70;24.60;;;10.20;99.90;;;;;;5036030;28;20037;-74
2022/04/14 05:50:15;;;;;;;35.97;25.50;;;10.20;99.90;;;;;;5053592;28;20512;-75
2022/04/14 05:52:41;;;;;;;32.17;26.37;;;;;;;;;;5053110;28;20041;-75
2022/04/14 05:55:08;;;;;;;33.13;24.63;;;10.40;99.90;;;;;;5051985;28;20297;-75
2022/04/14 05:57:34;;;;;;;30.80;25.00;;;10.50;99.90;;;;;;5053087;28;20319;-74
2022/04/14 06:00:00;;;;;;;33.33;25.93;;;10.60;99.90;;;;;;5053123;28;20790;-74
2022/04/14 06:02:26;;;;;;;34.10;25.30;;;10.80;99.90;;;;;;5051865;28;20367;-74
2022/04/14 06:04:52;;;;;;;34.90;26.30;;;10.90;99.90;;;;;;5053072;28;20048;-74
2022/04/14 06:07:18;;;;;;;32.30;24.93;;;11.10;99.90;;;;;;5053863;28;20284;-74
2022/04/14 06:09:44;;;;;;;34.57;25.83;;;11.20;99.90;;;;;;5052986;28;20802;-74
2022/04/14 06:12:10;;;;;;;30.87;24.27;;;11.20;99.90;;;;;;5053585;28;20106;-74
2022/04/14 06:14:36;;;;;;;29.17;24.50;;;;;;;;;;5052911;28;20037;-74
2022/04/14 06:17:01;;;;;;;29.37;23.97;;;11.90;99.90;;;;;;5035280;28;20128;-74
2022/04/14 06:19:27;;;;;;;29.27;23.17;;;12.40;99.90;;;;;;5035338;28;20287;-74
2022/04/14 06:21:53;;;;;;;30.67;22.37;;;13.40;99.90;;;;;;5052929;28;20481;-74
2022/04/14 06:24:18;;;;;;;26.87;21.20;;;14.20;99.90;;;;;;5052956;28;20056;-75
2022/04/14 06:26:44;;;;;;;26.83;21.43;;;15.20;99.90;;;;;;5036025;28;20056;-74
2022/04/14 06:29:10;;;;;;;23.80;19.87;;;15.90;99.90;;;;;;5052809;28;20053;-75
2022/04/14 06:31:37;;;;;;;24.93;19.63;;;16.60;99.90;;;;;;5052901;28;20057;-75
2022/04/14 06:34:05;;;;;;;25.87;19.13;;;17.40;99.90;;;;;;5052519;28;20520;-75
2022/04/14 06:36:31;;;;;;;22.43;17.83;;;;;;;;;;5035456;28;20623;-75
2022/04/14 06:38:57;;;;;;;25.70;20.27;;;18.50;99.90;;;;;;5052750;28;20088;-75
2022/04/14 06:41:22;;;;;;;23.13;18.80;;;19.00;99.90;;;;;;5052845;28;20452;-78
2022/04/14 06:43:49;;;;;;;20.50;17.60;;;19.40;99.90;;;;;;5052746;28;20051;-75
2022/04/14 06:46:16;;;;;;;22.50;18.53;;;19.70;94.60;;;;;;5052746;28;20452;-75
2022/04/14 06:48:43;;;;;;;21.53;19.23;;;20.10;91.80;;;;;;5052447;28;20064;-75
2022/04/14 06:51:09;;;;;;;20.23;17.00;;;20.50;87.90;;;;;;5052755;28;20481;-74
2022/04/14 06:53:34;;;;;;;19.23;16.10;;;21.20;64.00;;;;;;5053246;28;20504;-73
2022/04/14 06:56:00;;;;;;;22.43;17.07;;;21.30;76.90;;;;;;5053835;28;20095;-75
2022/04/14 06:58:26;;;;;;;19.37;17.07;;;21.50;72.20;;;;;;5056404;28;20045;-75
2022/04/14 07:00:52;;;;;;;21.10;16.57;;;;;;;;;;5055682;28;20045;-74
2022/04/14 07:03:21;;;;;;;19.17;16.23;;;22.20;67.40;;;;;;5056099;28;20049;-73
2022/04/14 07:05:47;;;;;;;17.87;15.20;;;;;;;;;;5056016;28;20057;-75
2022/04/14 07:08:13;;;;;;;20.83;16.73;;;;;;;;;;5056488;28;20437;-75
2022/04/14 07:10:40;;;;;;;19.83;15.93;;;;;;;;;;5055914;28;20052;-75
2022/04/14 07:13:06;;;;;;;17.40;15.17;;;;;;;;;;5055879;28;20060;-74
2022/04/14 07:15:33;;;;;;;16.33;13.87;;;;;;;;;;5056094;28;20134;-75
2022/04/14 07:18:01;;;;;;;15.93;14.00;;;;;;;;;;5055861;28;20397;-74
2022/04/14 07:20:29;;;;;;;17.30;14.20;;;;;;;;;;5055694;28;20149;-75
2022/04/14 07:22:58;;;;;;;16.47;14.00;;;;;;;;;;5055644;28;20180;-74
2022/04/14 07:25:24;;;;;;;19.60;13.50;;;;;;;;;;5056462;28;20412;-75
2022/04/14 07:27:50;;;;;;;14.37;12.87;;;;;;;;;;5055548;28;20045;-75
2022/04/14 07:30:18;;;;;;;15.87;12.93;;;;;;;;;;5055506;28;20580;-75
2022/04/14 07:32:45;;;;;;;13.93;12.13;;;;;;;;;;5055429;28;20045;-74
2022/04/14 07:35:12;;;;;;;17.23;13.03;;;;;;;;;;5055512;28;20076;-75
2022/04/14 07:37:38;;;;;;;15.90;12.50;;;;;;;;;;5054430;28;20084;-75
2022/04/14 07:40:11;;;;;;;16.87;12.33;;;;;;;;;;5054946;28;20120;-75
2022/04/14 07:42:42;;;;;;;16.00;11.50;;;;;;;;;;5038086;28;20060;-74
2022/04/14 07:45:09;;;;;;;13.00;11.60;;;;;;;;;;5055820;28;20132;-75
2022/04/14 07:47:35;;;;;;;15.50;11.50;;;;;;;;;;5055985;28;20135;-75
2022/04/14 07:50:01;;;;;;;14.70;11.50;;;;;;;;;;5037014;28;20053;-74
2022/04/14 07:52:27;;;;;;;14.20;11.67;;;;;;;;;;5054789;28;20114;-75
2022/04/14 07:54:53;;;;;;;13.80;11.07;;;;;;;;;;5055058;28;20398;-74
2022/04/14 07:57:19;;;;;;;13.03;10.83;;;;;;;;;;5054698;28;20048;-74
2022/04/14 07:59:46;;;;;;;14.50;11.03;;;;;;;;;;5055035;28;20059;-75
2022/04/14 08:02:11;;;;;;;12.37;11.07;;;24.70;49.10;;;;;;5055269;28;20131;-75
2022/04/14 08:04:38;;;;;;;14.77;11.47;;;23.90;65.60;;;;;;5054574;28;20167;-74
2022/04/14 08:07:05;;;;;;;13.27;11.67;;;23.30;51.80;;;;;;5054443;28;20049;-75
2022/04/14 08:09:31;;;;;;;13.37;11.67;;;;;;;;;;5054798;28;20090;-75
2022/04/14 08:11:57;;;;;;;14.20;11.47;;;22.00;54.40;;;;;;5054758;28;20072;-74
2022/04/14 08:14:22;;;;;;;15.03;11.77;;;21.60;56.50;;;;;;5055229;28;20464;-74
2022/04/14 08:16:48;;;;;;;14.53;11.77;;;21.20;63.60;;;;;;5055379;28;20049;-74
2022/04/14 08:19:14;;;;;;;13.57;12.13;;;;;;;;;;5054290;28;20473;-75
2022/04/14 08:21:40;;;;;;;16.97;12.30;;;;;;;;;;5054577;28;20049;-75
2022/04/14 08:24:07;;;;;;;16.20;13.03;;;;;;;;;;5054457;28;20048;-75
2022/04/14 08:26:33;;;;;;;14.27;12.67;;;20.40;95.20;;;;;;5054459;28;20053;-75
2022/04/14 08:29:00;;;;;;;14.73;13.03;;;20.10;62.90;;;;;;5054360;28;20074;-74
2022/04/14 08:31:26;;;;;;;14.83;12.43;;;20.00;63.80;;;;;;5054134;28;20501;-75
2022/04/14 08:33:52;;;;;;;14.63;12.73;;;19.90;65.00;;;;;;5054277;28;20040;-73
2022/04/14 08:36:20;;;;;;;15.33;13.53;;;19.80;65.70;;;;;;5003586;28;20059;-74
2022/04/14 08:38:46;;;;;;;15.57;13.87;;;19.60;67.80;;;;;;5036852;28;20059;-75
2022/04/14 08:41:14;;;;;;;17.10;13.97;;;19.50;67.40;;;;;;5036674;28;20064;-74
2022/04/14 08:43:58;;;;;;;15.90;12.77;;;19.40;68.90;;;;;;5054966;28;20041;-75
2022/04/14 08:46:27;;;;;;;15.90;12.93;;;19.30;88.20;;;;;;5053950;28;20098;-74
2022/04/14 08:48:55;;;;;;;17.17;12.07;;;19.20;92.10;;;;;;5054289;28;20136;-74
2022/04/14 08:51:22;;;;;;;16.73;12.40;;;19.00;72.70;;;;;;5053219;28;20492;-74
2022/04/14 08:53:51;;;;;;;17.30;11.70;;;18.80;74.00;;;;;;5053851;28;20064;-75
2022/04/14 08:56:18;;;;;;;14.30;10.57;;;18.70;75.50;;;;;;5053978;28;20057;-74
2022/04/14 08:58:45;;;;;;;15.40;11.27;;;18.70;76.60;;;;;;5053658;28;20102;-74
2022/04/14 09:01:13;;;;;;;15.10;11.50;;;18.50;76.00;;;;;;5054579;28;20048;-75
2022/04/14 09:03:39;;;;;;;19.50;12.43;;;18.40;78.00;;;;;;5053530;28;20124;-75
2022/04/14 09:06:05;;;;;;;15.23;11.77;;;18.30;81.00;;;;;;5053628;28;20523;-74
2022/04/14 09:08:30;;;;;;;12.93;10.40;;;18.10;82.50;;;;;;5052845;28;20049;-74
2022/04/14 09:10:57;;;;;;;15.30;10.80;;;;;;;;;;5053246;28;20084;-74
2022/04/14 09:13:23;;;;;;;14.27;9.80;;;;;;;;;;5053743;28;20128;-74
2022/04/14 09:15:49;;;;;;;11.57;8.63;;;;;;;;;;5054109;28;20049;-74
2022/04/14 09:18:16;;;;;;;13.97;10.17;;;;;;;;;;5052777;28;20044;-74
2022/04/14 09:20:43;;;;;;;10.93;8.20;;;;;;;;;;5053523;28;20139;-74
2022/04/14 09:23:20;;;;;;;13.00;9.07;;;;;;;;;;5053103;28;20052;-74
2022/04/14 09:25:47;;;;;;;11.57;8.57;;;;;;;;;;5053495;28;20110;-74
2022/04/14 09:28:14;;;;;;;12.33;8.33;;;;;;;;;;5053354;28;20432;-74
2022/04/14 09:30:41;;;;;;;12.90;8.83;;;;;;;;;;5053199;28;20051;-74
2022/04/14 09:33:16;;;;;;;11.20;8.13;;;17.80;99.90;;;;;;5053413;28;20053;-74
2022/04/14 09:35:42;;;;;;;11.97;8.67;;;18.00;99.90;;;;;;5053279;28;20049;-75
2022/04/14 09:38:13;;;;;;;15.07;9.30;;;17.90;99.90;;;;;;5053219;28;20041;-75
2022/04/14 09:40:40;;;;;;;11.37;8.70;;;;;;;;;;5053786;28;20045;-74
2022/04/14 09:43:06;;;;;;;12.27;7.53;;;;;;;;;;5053122;28;20064;-74
2022/04/14 09:45:33;;;;;;;12.87;8.43;;;17.70;99.90;;;;;;5053152;28;20064;-74
2022/04/14 09:48:07;;;;;;;11.90;8.00;;;17.60;97.00;;;;;;5053824;28;20045;-74
2022/04/14 09:50:40;;;;;;;10.93;7.20;;;17.60;97.50;;;;;;5053496;28;20182;-74
2022/04/14 09:53:12;;;;;;;13.50;8.40;;;17.60;97.70;;;;;;5052905;28;20041;-75
2022/04/14 09:55:44;;;;;;;12.03;8.27;;;17.60;95.20;;;;;;5053100;28;20117;-74
2022/04/14 09:58:23;;;;;;;11.93;7.80;;;17.40;91.70;;;;;;5053165;28;20475;-74
2022/04/14 10:00:55;;;;;;;12.87;7.23;;;17.50;91.70;;;;;;5053091;28;20056;-75
2022/04/14 10:03:28;;;;;;;10.17;6.77;;;17.40;91.30;;;;;;5053718;28;20056;-74
2022/04/14 10:06:06;;;;;;;10.63;6.33;;;17.40;91.80;;;;;;5052974;28;20499;-74
2022/04/14 10:08:48;;;;;;;11.77;5.90;;;17.40;90.90;;;;;;5053489;28;20040;-75
2022/04/14 10:11:14;;;;;;;11.53;6.47;;;17.40;90.80;;;;;;5036111;28;20110;-74
2022/04/14 10:13:40;;;;;;;11.17;6.50;;;17.40;90.60;;;;;;5052643;28;20057;-74
2022/04/14 10:16:07;;;;;;;9.93;5.40;;;17.30;91.30;;;;;;5052794;28;20040;-74
2022/04/14 10:18:33;;;;;;;9.60;5.00;;;17.30;91.00;;;;;;5052791;28;20048;-74
2022/04/14 10:20:59;;;;;;;10.53;4.50;;;17.30;90.20;;;;;;5035183;28;20045;-75
2022/04/14 10:23:28;;;;;;;9.13;4.20;;;17.30;89.40;;;;;;5052724;28;20106;-75
2022/04/14 10:25:55;;;;;;;8.23;3.97;;;17.20;88.30;;;;;;5052164;28;20405;-75
2022/04/14 10:28:21;;;;;;;8.17;4.10;;;17.10;88.40;;;;;;5052679;28;20049;-75
2022/04/14 10:30:49;;;;;;;7.90;3.40;;;17.10;87.40;;;;;;5055121;28;20075;-75
2022/04/14 10:33:17;;;;;;;7.33;3.00;;;17.00;88.40;;;;;;5056537;28;20427;-75
2022/04/14 10:35:43;;;;;;;7.23;3.10;;;;;;;;;;5057275;28;20110;-74
2022/04/14 10:38:17;;;;;;;9.37;4.13;;;17.00;99.90;;;;;;5056391;28;20072;-75
2022/04/14 10:40:48;;;;;;;7.72;3.55;;;16.80;90.00;;;;;;5056063;28;20503;-75
2022/04/14 10:43:18;;;;;;;10.00;4.40;;;16.70;89.70;;;;;;5056418;28;20552;-75
2022/04/14 10:45:52;;;;;;;9.00;3.37;;;16.70;90.10;;;;;;5056945;28;20124;-75
2022/04/14 10:48:34;;;;;;;8.93;3.63;;;16.70;90.00;;;;;;5056242;28;20053;-75
2022/04/14 10:51:24;;;;;;;7.27;3.43;;;16.70;90.00;;;;;;5038666;28;20049;-75
2022/04/14 10:54:00;;;;;;;7.90;3.57;;;16.70;90.90;;;;;;5056014;28;20128;-75
2022/04/14 10:56:37;;;;;;;9.97;3.30;;;16.80;90.30;;;;;;5056070;28;20107;-76
2022/04/14 10:59:14;;;;;;;8.27;3.37;;;16.80;90.20;;;;;;5056445;28;20048;-75
2022/04/14 11:01:46;;;;;;;7.13;3.40;;;16.80;88.50;;;;;;5056006;28;20045;-75
2022/04/14 11:04:47;;;;;;;10.73;3.50;;;16.70;86.10;;;;;;5056686;28;20053;-76
2022/04/14 11:07:23;;;;;;;7.87;4.03;;;16.70;88.00;;;;;;5055699;28;20497;-75
2022/04/14 11:09:59;;;;;;;8.70;4.10;;;16.70;90.00;;;;;;5056125;28;20045;-75
2022/04/14 11:12:32;;;;;;;6.50;3.20;;;16.70;90.70;;;;;;5056198;28;20041;-75
2022/04/14 11:15:10;;;;;;;5.57;3.10;;;16.70;90.50;;;;;;5056291;28;20044;-76
2022/04/14 11:17:48;;;;;;;8.20;3.30;;;16.70;88.80;;;;;;5054853;28;20063;-77
2022/04/14 11:20:35;;;;;;;7.00;3.67;;;16.70;90.10;;;;;;5055542;28;20057;-75
2022/04/14 11:23:04;;;;;;;6.87;3.80;;;16.70;90.40;;;;;;5055665;28;20136;-76
2022/04/14 11:25:49;;;;;;;9.13;4.83;;;16.70;90.20;;;;;;5056313;28;20041;-75
2022/04/14 11:28:15;;;;;;;8.57;5.15;;;16.80;90.60;;;;;;5056045;28;20033;-76
2022/04/14 11:30:41;;;;;;;9.07;5.07;;;16.80;91.10;;;;;;5055761;28;20053;-76
2022/04/14 11:33:25;;;;;;;8.47;4.30;;;16.80;91.60;;;;;;5056251;28;20127;-75
2022/04/14 11:35:51;;;;;;;7.60;3.97;;;16.90;92.10;;;;;;5037572;28;20049;-75
2022/04/14 11:38:58;;;;;;;7.23;3.63;;;16.90;91.40;;;;;;5055456;28;20049;-75
2022/04/14 11:41:46;;;;;;;6.83;3.23;;;17.00;90.80;;;;;;5054452;28;20057;-75
2022/04/14 11:44:16;;;;;;;10.10;3.97;;;17.00;88.00;;;;;;5055149;28;20044;-75
2022/04/14 11:46:43;;;;;;;6.63;3.43;;;17.00;90.10;;;;;;5055344;28;20091;-75
2022/04/14 11:49:10;;;;;;;8.20;2.60;;;17.10;90.30;;;;;;5055291;28;20492;-75
2022/04/14 11:51:44;;;;;;;7.93;2.77;;;17.20;90.00;;;;;;5055184;28;20136;-75
2022/04/14 11:54:10;;;;;;;9.50;3.43;;;17.10;87.40;;;;;;5055097;28;20124;-75
2022/04/14 11:56:36;;;;;;;9.73;3.47;;;17.10;87.80;;;;;;5055567;28;20045;-75
2022/04/14 11:59:07;;;;;;;6.03;2.70;;;17.10;88.00;;;;;;5055227;28;20037;-76
2022/04/14 12:01:33;;;;;;;8.17;3.87;;;17.10;87.50;;;;;;5054909;28;20049;-76
2022/04/14 12:03:58;;;;;;;7.13;3.20;;;17.20;88.20;;;;;;5054802;28;20124;-75
2022/04/14 12:06:24;;;;;;;8.63;2.93;;;17.20;89.10;;;;;;5053703;28;20048;-76
2022/04/14 12:08:56;;;;;;;6.47;3.10;;;17.20;89.30;;;;;;5054333;28;20056;-75
2022/04/14 12:11:26;;;;;;;7.27;2.83;;;17.20;88.60;;;;;;5054788;28;20049;-75
2022/04/14 12:13:52;;;;;;;6.80;2.63;;;17.20;89.20;;;;;;5054699;28;20049;-75
2022/04/14 12:16:18;;;;;;;4.63;2.40;;;17.10;89.10;;;;;;5055420;28;20128;-75
2022/04/14 12:18:51;;;;;;;10.27;3.33;;;17.20;89.00;;;;;;5054559;28;20481;-76
2022/04/14 12:21:18;;;;;;;7.00;2.90;;;17.20;88.80;;;;;;5055369;28;20052;-75
2022/04/14 12:23:49;;;;;;;6.80;3.23;;;17.20;89.60;;;;;;5054437;28;20098;-76
2022/04/14 12:26:16;;;;;;;7.50;3.10;;;17.30;89.90;;;;;;5036571;28;20397;-75
2022/04/14 12:28:42;;;;;;;9.10;3.20;;;17.30;89.60;;;;;;5054275;28;20055;-76
2022/04/14 12:31:12;;;;;;;8.60;3.70;;;;;;;;;;5054432;28;20048;-76
2022/04/14 12:33:37;;;;;;;7.17;2.70;;;17.60;99.90;;;;;;5054254;28;20045;-76
2022/04/14 12:36:08;;;;;;;7.13;3.37;;;17.50;89.10;;;;;;5054287;28;20146;-75
2022/04/14 12:38:45;;;;;;;7.23;3.10;;;17.60;89.00;;;;;;5054189;28;20045;-76
2022/04/14 12:41:17;;;;;;;8.00;3.67;;;17.70;89.90;;;;;;5054789;28;20045;-76
2022/04/14 12:43:51;;;;;;;9.03;3.97;;;17.70;88.50;;;;;;5054915;28;20044;-76
2022/04/14 12:46:20;;;;;;;7.03;3.60;;;17.80;88.30;;;;;;5054082;28;20118;-75
2022/04/14 12:48:46;;;;;;;8.67;3.60;;;17.80;88.50;;;;;;5053795;28;20067;-76
2022/04/14 12:51:12;;;;;;;9.83;3.23;;;17.90;88.80;;;;;;5053952;28;20397;-76
2022/04/14 12:53:37;;;;;;;8.00;3.00;;;17.90;87.30;;;;;;5053815;28;20107;-76
2022/04/14 12:56:14;;;;;;;5.43;2.73;;;18.00;86.90;;;;;;5054426;28;20060;-76